createdAt,value
2018-02-08T00:01:20.754Z,5.81
2018-02-08T00:03:48.303Z,5.83
2018-02-08T00:06:15.779Z,5.79
2018-02-08T00:08:43.273Z,5.76
2018-02-08T00:11:10.779Z,5.69
2018-02-08T00:13:38.295Z,5.71
2018-02-08T00:16:05.800Z,5.65
2018-02-08T00:18:33.361Z,5.67
2018-02-08T00:21:00.938Z,5.49
2018-02-08T00:23:28.535Z,5.58
2018-02-08T00:25:56.072Z,5.64
2018-02-08T00:28:23.562Z,5.64
2018-02-08T00:30:51.103Z,5.66
2018-02-08T00:33:18.716Z,5.68
2018-02-08T00:35:46.326Z,5.69
2018-02-08T00:38:13.823Z,5.70
2018-02-08T00:40:41.478Z,5.70
2018-02-08T00:43:09.112Z,5.57
2018-02-08T00:45:36.833Z,5.54
2018-02-08T00:48:04.478Z,5.51
2018-02-08T00:50:31.954Z,5.30
2018-02-08T00:52:59.466Z,5.25
2018-02-08T00:55:26.978Z,5.19
2018-02-08T00:57:54.507Z,5.16
2018-02-08T01:00:22.773Z,5.18
2018-02-08T01:02:50.249Z,5.14
2018-02-08T01:05:17.754Z,5.09
2018-02-08T01:07:45.232Z,5.09
2018-02-08T01:10:12.741Z,5.15
2018-02-08T01:12:40.237Z,5.26
2018-02-08T01:15:07.731Z,5.23
2018-02-08T01:17:35.316Z,5.20
2018-02-08T01:20:02.958Z,5.24
2018-02-08T01:22:30.555Z,5.29
2018-02-08T01:24:58.103Z,5.29
2018-02-08T01:27:25.590Z,5.32
2018-02-08T01:29:53.095Z,5.35
2018-02-08T01:32:20.612Z,5.26
2018-02-08T01:34:48.859Z,5.13
2018-02-08T01:37:16.345Z,5.10
2018-02-08T01:39:43.854Z,5.03
2018-02-08T01:42:11.345Z,5.15
2018-02-08T01:44:38.830Z,4.99
2018-02-08T01:47:06.357Z,4.82
2018-02-08T01:49:45.724Z,4.78
2018-02-08T01:52:13.245Z,4.88
2018-02-08T01:54:40.761Z,4.92
2018-02-08T01:57:08.255Z,4.88
2018-02-08T01:59:35.787Z,4.95
2018-02-08T02:02:03.297Z,5.03
2018-02-08T02:04:31.383Z,5.06
2018-02-08T02:06:58.895Z,5.11
2018-02-08T02:09:26.659Z,5.11
2018-02-08T02:11:54.150Z,5.11
2018-02-08T02:14:21.702Z,5.11
2018-02-08T02:16:49.207Z,4.99
2018-02-08T02:19:16.721Z,5.06
2018-02-08T02:21:44.238Z,5.11
2018-02-08T02:24:11.730Z,5.12
2018-02-08T02:26:39.239Z,5.16
2018-02-08T02:29:06.746Z,5.16
2018-02-08T02:31:34.245Z,5.14
2018-02-08T02:34:01.731Z,5.16
2018-02-08T02:36:29.232Z,5.19
2018-02-08T02:38:56.760Z,5.23
2018-02-08T02:41:24.265Z,5.24
2018-02-08T02:43:51.800Z,5.25
2018-02-08T02:46:19.296Z,5.23
2018-02-08T02:48:46.787Z,5.21
2018-02-08T02:51:14.276Z,5.15
2018-02-08T02:53:41.797Z,5.12
2018-02-08T02:56:09.761Z,5.17
2018-02-08T02:58:37.307Z,5.09
2018-02-08T03:01:04.895Z,5.13
2018-02-08T03:03:32.489Z,5.18
2018-02-08T03:06:00.032Z,5.20
2018-02-08T03:08:27.525Z,5.23
2018-02-08T03:10:55.032Z,5.11
2018-02-08T03:13:22.513Z,5.13
2018-02-08T03:15:50.066Z,5.03
2018-02-08T03:18:17.539Z,5.05
2018-02-08T03:20:45.012Z,5.05
2018-02-08T03:23:12.529Z,5.07
2018-02-08T03:25:40.018Z,5.14
2018-02-08T03:28:07.528Z,5.19
2018-02-08T03:33:38.855Z,5.00
2018-02-08T03:36:06.357Z,5.05
2018-02-08T03:38:33.857Z,5.10
2018-02-08T03:41:01.370Z,5.14
2018-02-08T03:43:28.857Z,5.15
2018-02-08T03:45:56.431Z,5.19
2018-02-08T03:48:24.005Z,5.16
2018-02-08T03:50:51.536Z,5.08
2018-02-08T03:53:19.022Z,5.09
2018-02-08T03:55:46.524Z,5.12
2018-02-08T03:58:14.045Z,5.15
2018-02-08T04:00:41.530Z,5.07
2018-02-08T04:03:09.048Z,5.12
2018-02-08T04:05:36.533Z,5.13
2018-02-08T04:08:04.052Z,5.05
2018-02-08T04:10:31.597Z,5.09
2018-02-08T04:12:59.089Z,5.17
2018-02-08T04:15:26.705Z,5.11
2018-02-08T04:17:54.328Z,5.02
2018-02-08T04:20:21.908Z,5.02
2018-02-08T04:22:49.448Z,5.05
2018-02-08T04:25:16.969Z,5.03
2018-02-08T04:27:44.475Z,4.90
2018-02-08T04:30:12.044Z,4.87
2018-02-08T04:32:39.541Z,4.86
2018-02-08T04:35:07.063Z,4.95
2018-02-08T04:37:34.555Z,4.99
2018-02-08T04:40:13.908Z,5.02
2018-02-08T04:42:53.818Z,5.06
2018-02-08T04:45:33.066Z,5.00
2018-02-08T04:48:08.720Z,5.03
2018-02-08T04:50:36.229Z,5.01
2018-02-08T04:53:03.747Z,4.98
2018-02-08T04:55:31.295Z,4.99
2018-02-08T04:57:58.796Z,5.00
2018-02-08T05:00:26.335Z,4.93
2018-02-08T05:02:56.351Z,4.96
2018-02-08T05:05:23.936Z,5.01
2018-02-08T05:07:51.417Z,5.04
2018-02-08T05:10:18.898Z,5.04
2018-02-08T05:12:47.220Z,5.05
2018-02-08T05:15:14.864Z,5.04
2018-02-08T05:17:42.410Z,5.07
2018-02-08T05:20:09.990Z,5.11
2018-02-08T05:22:37.560Z,5.03
2018-02-08T05:25:05.053Z,5.03
2018-02-08T05:27:32.552Z,5.04
2018-02-08T05:30:00.150Z,4.99
2018-02-08T05:32:27.640Z,4.89
2018-02-08T05:34:55.173Z,5.01
2018-02-08T05:37:23.336Z,5.05
2018-02-08T05:39:50.855Z,5.09
2018-02-08T05:42:18.425Z,5.11
2018-02-08T05:44:45.990Z,5.12
2018-02-08T05:47:13.539Z,5.12
2018-02-08T05:49:41.136Z,5.09
2018-02-08T05:52:08.713Z,5.05
2018-02-08T05:54:36.310Z,4.99
2018-02-08T05:57:03.876Z,4.81
2018-02-08T05:59:31.460Z,4.89
2018-02-08T06:01:58.951Z,4.89
2018-02-08T06:04:26.471Z,4.86
2018-02-08T06:06:54.012Z,4.83
2018-02-08T06:09:21.527Z,4.81
2018-02-08T06:11:49.014Z,4.84
2018-02-08T06:14:16.563Z,4.64
2018-02-08T06:16:44.568Z,4.71
2018-02-08T06:19:12.153Z,4.70
2018-02-08T06:21:39.747Z,4.63
2018-02-08T06:24:07.371Z,4.67
2018-02-08T06:26:34.948Z,4.66
2018-02-08T06:29:02.586Z,4.64
2018-02-08T06:31:30.139Z,4.61
2018-02-08T06:33:57.703Z,4.63
2018-02-08T06:36:25.216Z,4.73
2018-02-08T06:38:52.689Z,4.67
2018-02-08T06:41:20.203Z,4.74
2018-02-08T06:43:47.704Z,4.77
2018-02-08T06:46:15.237Z,4.67
2018-02-08T06:48:42.744Z,4.72
2018-02-08T06:51:10.224Z,4.71
2018-02-08T06:53:37.784Z,4.80
2018-02-08T06:56:05.263Z,4.83
2018-02-08T06:58:32.791Z,4.90
2018-02-08T07:01:00.360Z,4.88
2018-02-08T07:03:27.853Z,4.87
2018-02-08T07:05:55.527Z,4.89
2018-02-08T07:08:23.023Z,4.78
2018-02-08T07:10:50.564Z,4.76
2018-02-08T07:13:18.094Z,4.85
2018-02-08T07:15:45.726Z,4.87
2018-02-08T07:18:13.304Z,4.87
2018-02-08T07:20:41.000Z,4.81
2018-02-08T07:23:08.558Z,4.70
2018-02-08T07:25:36.157Z,4.41
2018-02-08T07:28:03.664Z,4.43
2018-02-08T07:30:31.154Z,4.58
2018-02-08T07:32:58.671Z,4.64
2018-02-08T07:35:26.167Z,4.70
2018-02-08T07:37:53.703Z,4.65
2018-02-08T07:40:21.185Z,4.70
2018-02-08T07:42:48.718Z,4.80
2018-02-08T07:45:16.248Z,4.70
2018-02-08T07:47:43.753Z,4.81
2018-02-08T07:50:11.259Z,4.88
2018-02-08T07:52:38.799Z,4.88
2018-02-08T07:55:06.353Z,4.87
2018-02-08T07:57:34.014Z,4.82
2018-02-08T08:00:01.604Z,4.87
2018-02-08T08:02:29.096Z,4.94
2018-02-08T08:04:56.616Z,4.93
2018-02-08T08:07:24.106Z,4.94
2018-02-08T08:09:51.612Z,4.98
2018-02-08T08:12:19.135Z,5.01
2018-02-08T08:14:46.626Z,5.06
2018-02-08T08:17:14.162Z,5.10
2018-02-08T08:19:41.687Z,5.10
2018-02-08T08:22:09.217Z,5.04
2018-02-08T08:24:36.727Z,4.90
2018-02-08T08:27:04.236Z,5.02
2018-02-08T08:29:31.744Z,4.78
2018-02-08T08:31:59.233Z,4.85
2018-02-08T08:34:26.815Z,4.98
2018-02-08T08:36:54.344Z,4.97
2018-02-08T08:39:21.996Z,4.98
2018-02-08T08:41:49.506Z,4.89
2018-02-08T08:44:17.062Z,4.91
2018-02-08T08:46:44.588Z,4.99
2018-02-08T08:49:12.075Z,4.96
2018-02-08T08:51:39.590Z,4.98
2018-02-08T08:54:07.148Z,5.05
2018-02-08T08:56:34.677Z,5.08
2018-02-08T08:59:02.205Z,5.03
2018-02-08T09:01:29.710Z,5.04
2018-02-08T09:03:57.199Z,5.02
2018-02-08T09:06:24.676Z,5.02
2018-02-08T09:08:52.197Z,5.11
2018-02-08T09:11:19.703Z,5.17
2018-02-08T09:13:47.257Z,5.04
2018-02-08T09:16:14.774Z,4.95
2018-02-08T09:18:42.292Z,5.14
2018-02-08T09:21:09.783Z,5.20
2018-02-08T09:23:37.464Z,5.26
2018-02-08T09:26:05.070Z,5.42
2018-02-08T09:28:32.678Z,5.52
2018-02-08T09:31:00.276Z,5.59
2018-02-08T09:33:27.805Z,5.69
2018-02-08T09:35:55.441Z,5.73
2018-02-08T09:38:22.939Z,5.79
2018-02-08T09:40:50.536Z,5.76
2018-02-08T09:43:18.026Z,5.81
2018-02-08T09:45:45.534Z,5.75
2018-02-08T09:48:13.041Z,5.71
2018-02-08T09:50:40.567Z,5.79
2018-02-08T09:53:08.081Z,5.89
2018-02-08T09:55:35.567Z,5.90
2018-02-08T09:58:03.079Z,5.68
2018-02-08T10:00:30.572Z,5.69
2018-02-08T10:02:58.122Z,5.87
2018-02-08T10:05:25.703Z,5.83
2018-02-08T10:07:53.316Z,5.78
2018-02-08T10:10:20.826Z,6.03
2018-02-08T10:12:48.306Z,6.15
2018-02-08T10:15:16.232Z,6.01
2018-02-08T10:17:43.718Z,6.03
2018-02-08T10:20:11.214Z,6.08
2018-02-08T10:22:38.735Z,6.14
2018-02-08T10:25:06.302Z,6.28
2018-02-08T10:27:33.844Z,6.21
2018-02-08T10:30:01.482Z,6.29
2018-02-08T10:32:29.500Z,6.35
2018-02-08T10:34:56.996Z,6.47
2018-02-08T10:37:24.527Z,6.52
2018-02-08T10:39:52.055Z,6.47
2018-02-08T10:42:19.572Z,6.30
2018-02-08T10:44:47.085Z,6.47
2018-02-08T10:47:14.651Z,6.60
2018-02-08T10:49:42.147Z,6.52
2018-02-08T10:52:09.704Z,6.58
2018-02-08T10:54:37.220Z,6.58
2018-02-08T10:57:04.730Z,6.74
2018-02-08T10:59:32.251Z,6.83
2018-02-08T11:01:59.769Z,6.88
2018-02-08T11:04:27.297Z,6.88
2018-02-08T11:06:54.785Z,6.74
2018-02-08T11:09:22.308Z,6.73
2018-02-08T11:11:49.908Z,6.65
2018-02-08T11:14:17.430Z,6.62
2018-02-08T11:16:44.942Z,6.66
2018-02-08T11:19:12.471Z,6.61
2018-02-08T11:21:39.982Z,6.68
2018-02-08T11:24:07.531Z,6.63
2018-02-08T11:26:35.131Z,6.63
2018-02-08T11:29:02.641Z,6.67
2018-02-08T11:31:30.241Z,6.66
2018-02-08T11:33:57.746Z,6.62
2018-02-08T11:36:25.252Z,6.57
2018-02-08T11:38:52.804Z,6.48
2018-02-08T11:41:20.309Z,6.38
2018-02-08T11:43:47.827Z,6.46
2018-02-08T11:46:15.369Z,6.52
2018-02-08T11:48:42.885Z,6.40
2018-02-08T11:51:10.384Z,6.36
2018-02-08T11:53:37.908Z,6.48
2018-02-08T11:56:05.396Z,6.66
2018-02-08T11:58:32.914Z,6.58
2018-02-08T12:01:00.428Z,6.74
2018-02-08T12:03:27.944Z,6.91
2018-02-08T12:05:55.528Z,6.90
2018-02-08T12:08:23.030Z,7.01
2018-02-08T12:10:50.554Z,7.13
2018-02-08T12:13:18.080Z,7.25
2018-02-08T12:15:45.612Z,7.24
2018-02-08T12:18:13.637Z,7.15
2018-02-08T12:20:41.176Z,7.29
2018-02-08T12:23:08.777Z,7.42
2018-02-08T12:25:36.349Z,7.39
2018-02-08T12:28:03.960Z,7.41
2018-02-08T12:30:31.489Z,7.23
2018-02-08T12:32:59.099Z,7.01
2018-02-08T12:35:26.641Z,6.80
2018-02-08T12:37:54.179Z,6.96
2018-02-08T12:40:21.712Z,7.02
2018-02-08T12:42:49.224Z,6.97
2018-02-08T12:45:16.787Z,6.82
2018-02-08T12:47:44.313Z,6.68
2018-02-08T12:50:11.892Z,6.58
2018-02-08T12:52:39.974Z,6.50
2018-02-08T12:55:07.531Z,6.55
2018-02-08T12:57:35.100Z,6.49
2018-02-08T13:00:02.602Z,6.61
2018-02-08T13:02:30.180Z,6.91
2018-02-08T13:04:57.707Z,7.31
2018-02-08T13:07:25.398Z,7.74
2018-02-08T13:09:52.905Z,8.18
2018-02-08T13:12:20.519Z,8.55
2018-02-08T13:14:48.004Z,8.70
2018-02-08T13:17:15.538Z,8.70
2018-02-08T13:19:43.021Z,8.61
2018-02-08T13:22:10.551Z,8.61
2018-02-08T13:24:38.069Z,8.71
2018-02-08T13:27:05.585Z,8.62
2018-02-08T13:29:33.132Z,8.42
2018-02-08T13:32:01.131Z,8.39
2018-02-08T13:34:28.676Z,8.32
2018-02-08T13:36:56.266Z,8.28
2018-02-08T13:42:25.663Z,8.56
2018-02-08T13:44:53.166Z,8.48
2018-02-08T13:47:26.244Z,8.65
2018-02-08T13:49:59.208Z,8.50
2018-02-08T13:52:33.229Z,8.18
2018-02-08T13:55:01.512Z,8.13
2018-02-08T13:57:33.636Z,7.97
2018-02-08T14:00:17.023Z,7.78
2018-02-08T14:02:44.614Z,7.58
2018-02-08T14:05:12.156Z,7.50
2018-02-08T14:07:39.663Z,7.57
2018-02-08T14:10:07.153Z,7.60
2018-02-08T14:12:34.735Z,7.50
2018-02-08T14:15:02.222Z,7.54
2018-02-08T14:17:29.755Z,7.71
2018-02-08T14:19:57.377Z,7.84
2018-02-08T14:22:24.898Z,7.85
2018-02-08T14:24:52.976Z,7.84
2018-02-08T14:27:20.517Z,7.96
2018-02-08T14:29:48.075Z,8.02
2018-02-08T14:32:16.431Z,7.97
2018-02-08T14:34:43.960Z,7.83
2018-02-08T14:37:11.454Z,7.79
2018-02-08T14:39:39.618Z,7.88
2018-02-08T14:42:07.139Z,7.74
2018-02-08T14:44:34.688Z,7.59
2018-02-08T14:47:02.263Z,7.59
2018-02-08T14:49:29.855Z,7.55
2018-02-08T14:51:57.379Z,7.51
2018-02-08T14:54:24.908Z,7.33
2018-02-08T14:56:52.424Z,7.21
2018-02-08T14:59:19.922Z,7.10
2018-02-08T15:01:47.429Z,7.06
2018-02-08T15:04:14.961Z,6.86
2018-02-08T15:06:42.456Z,6.93
2018-02-08T15:09:10.003Z,6.94
2018-02-08T15:11:37.499Z,6.91
2018-02-08T15:14:09.009Z,6.82
2018-02-08T15:16:36.598Z,6.58
2018-02-08T15:19:04.107Z,6.42
2018-02-08T15:21:31.637Z,6.47
2018-02-08T15:23:59.134Z,6.51
2018-02-08T15:26:26.756Z,6.62
2018-02-08T15:28:54.275Z,6.71
2018-02-08T15:31:21.906Z,6.74
2018-02-08T15:33:49.417Z,6.81
2018-02-08T15:36:16.960Z,6.88
2018-02-08T15:38:44.485Z,6.92
2018-02-08T15:41:11.994Z,6.88
2018-02-08T15:43:39.595Z,6.86
2018-02-08T15:46:07.172Z,6.85
2018-02-08T15:48:34.866Z,6.78
2018-02-08T15:51:02.423Z,6.83
2018-02-08T15:53:29.955Z,6.77
2018-02-08T15:55:57.486Z,6.76
2018-02-08T15:58:25.067Z,6.63
2018-02-08T16:00:52.592Z,6.58
2018-02-08T16:03:20.092Z,6.49
2018-02-08T16:05:47.610Z,6.34
2018-02-08T16:08:15.116Z,6.42
2018-02-08T16:10:42.647Z,6.45
2018-02-08T16:13:10.184Z,6.55
2018-02-08T16:15:37.645Z,6.53
2018-02-08T16:18:05.173Z,6.50
2018-02-08T16:20:32.724Z,6.42
2018-02-08T16:23:00.302Z,6.42
2018-02-08T16:25:27.891Z,6.45
2018-02-08T16:27:55.463Z,6.53
2018-02-08T16:30:23.001Z,6.55
2018-02-08T16:32:50.492Z,6.49
2018-02-08T16:35:18.090Z,6.47
2018-02-08T16:37:45.612Z,6.48
2018-02-08T16:40:13.254Z,6.47
2018-02-08T16:42:40.833Z,6.45
2018-02-08T16:45:08.426Z,6.46
2018-02-08T16:47:36.036Z,6.43
2018-02-08T16:50:03.577Z,6.34
2018-02-08T16:52:31.075Z,6.34
2018-02-08T16:54:58.587Z,6.23
2018-02-08T16:57:26.121Z,6.13
2018-02-08T16:59:53.693Z,6.08
2018-02-08T17:02:21.238Z,6.03
2018-02-08T17:04:48.756Z,6.04
2018-02-08T17:07:19.957Z,6.12
2018-02-08T17:09:47.453Z,6.19
2018-02-08T17:12:15.116Z,6.18
2018-02-08T17:14:42.684Z,6.22
2018-02-08T17:17:10.345Z,6.21
2018-02-08T17:19:37.885Z,6.17
2018-02-08T17:22:05.472Z,6.09
2018-02-08T17:24:36.358Z,5.96
2018-02-08T17:27:04.034Z,5.91
2018-02-08T17:29:31.746Z,5.90
2018-02-08T17:31:59.368Z,5.91
2018-02-08T17:34:26.882Z,5.88
2018-02-08T17:36:54.669Z,5.76
2018-02-08T17:39:22.233Z,5.70
2018-02-08T17:41:49.820Z,5.71
2018-02-08T17:44:17.465Z,5.65
2018-02-08T17:46:45.155Z,5.57
2018-02-08T17:49:12.760Z,5.56
2018-02-08T17:51:40.300Z,5.55
2018-02-08T17:54:07.831Z,5.52
2018-02-08T17:56:35.339Z,5.47
2018-02-08T17:59:02.869Z,5.42
2018-02-08T18:01:30.393Z,5.49
2018-02-08T18:03:57.958Z,5.58
2018-02-08T18:06:25.493Z,5.59
2018-02-08T18:08:53.065Z,5.51
2018-02-08T18:11:20.619Z,5.53
2018-02-08T18:13:48.200Z,5.52
2018-02-08T18:16:16.709Z,5.51
2018-02-08T18:18:44.295Z,5.48
2018-02-08T18:21:11.822Z,5.41
2018-02-08T18:23:39.325Z,5.52
2018-02-08T18:26:06.912Z,5.49
2018-02-08T18:28:34.442Z,5.42
2018-02-08T18:31:02.063Z,5.41
2018-02-08T18:33:29.592Z,5.39
2018-02-08T18:35:57.193Z,5.43
2018-02-08T18:38:24.773Z,5.52
2018-02-08T18:40:52.328Z,5.61
2018-02-08T18:43:19.868Z,5.66
2018-02-08T18:45:47.400Z,5.65
2018-02-08T18:48:15.016Z,5.66
2018-02-08T18:50:42.553Z,5.66
2018-02-08T18:53:10.116Z,5.69
2018-02-08T18:55:37.784Z,5.73
2018-02-08T18:58:05.302Z,5.71
2018-02-08T19:00:32.884Z,5.72
2018-02-08T19:03:00.557Z,5.72
2018-02-08T19:05:28.098Z,5.74
2018-02-08T19:07:55.664Z,5.74
2018-02-08T19:10:23.216Z,5.71
2018-02-08T19:12:50.772Z,5.69
2018-02-08T19:15:18.302Z,5.69
2018-02-08T19:17:45.818Z,5.48
2018-02-08T19:20:13.405Z,5.31
2018-02-08T19:22:40.965Z,5.43
2018-02-08T19:25:08.516Z,5.49
2018-02-08T19:27:36.070Z,5.58
2018-02-08T19:30:03.669Z,5.64
2018-02-08T19:32:31.243Z,5.59
2018-02-08T19:34:59.276Z,5.54
2018-02-08T19:37:26.808Z,5.55
2018-02-08T19:39:54.418Z,5.43
2018-02-08T19:42:21.983Z,5.55
2018-02-08T19:44:49.543Z,5.61
2018-02-08T19:47:17.200Z,5.50
2018-02-08T19:49:45.061Z,5.49
2018-02-08T19:52:12.586Z,5.54
2018-02-08T19:54:40.093Z,5.61
2018-02-08T19:57:08.568Z,5.66
2018-02-08T19:59:36.054Z,5.68
2018-02-08T20:02:03.611Z,5.71
2018-02-08T20:04:31.256Z,5.69
2018-02-08T20:06:58.761Z,5.76
2018-02-08T20:09:26.254Z,5.76
2018-02-08T20:11:53.755Z,5.77
2018-02-08T20:14:26.884Z,5.72
2018-02-08T20:16:54.420Z,5.54
2018-02-08T20:19:21.977Z,5.57
2018-02-08T20:21:49.498Z,5.55
2018-02-08T20:24:17.041Z,5.56
2018-02-08T20:26:44.566Z,5.53
2018-02-08T20:29:12.123Z,5.53
2018-02-08T20:31:39.645Z,5.59
2018-02-08T20:34:07.156Z,5.55
2018-02-08T20:36:34.710Z,5.48
2018-02-08T20:39:02.239Z,5.54
2018-02-08T20:41:29.749Z,5.57
2018-02-08T20:43:57.292Z,5.55
2018-02-08T20:46:24.845Z,5.58
2018-02-08T20:48:52.648Z,5.59
2018-02-08T20:51:20.145Z,5.56
2018-02-08T20:53:47.670Z,5.57
2018-02-08T20:56:15.709Z,5.55
2018-02-08T20:58:43.307Z,5.60
2018-02-08T21:01:10.913Z,5.51
2018-02-08T21:03:39.286Z,5.51
2018-02-08T21:06:06.896Z,5.52
2018-02-08T21:08:34.429Z,5.49
2018-02-08T21:11:02.090Z,5.44
2018-02-08T21:13:29.711Z,5.39
2018-02-08T21:15:57.316Z,5.40
2018-02-08T21:18:25.274Z,5.33
2018-02-08T21:20:52.814Z,5.33
2018-02-08T21:23:20.324Z,5.31
2018-02-08T21:25:48.028Z,5.32
2018-02-08T21:28:15.530Z,5.35
2018-02-08T21:30:43.130Z,5.37
2018-02-08T21:33:10.702Z,5.34
2018-02-08T21:35:38.245Z,5.32
2018-02-08T21:38:05.774Z,5.20
2018-02-08T21:40:33.268Z,5.23
2018-02-08T21:43:00.876Z,5.32
2018-02-08T21:45:28.770Z,5.30
2018-02-08T21:47:56.282Z,5.33
2018-02-08T21:50:24.217Z,5.41
2018-02-08T21:52:52.464Z,5.50
2018-02-08T21:55:19.962Z,5.50
2018-02-08T21:57:47.482Z,5.50
2018-02-08T22:00:14.987Z,5.40
2018-02-08T22:02:42.527Z,5.31
2018-02-08T22:05:10.026Z,5.23
2018-02-08T22:07:37.705Z,5.12
2018-02-08T22:10:05.287Z,5.13
2018-02-08T22:12:32.920Z,5.19
2018-02-08T22:15:00.460Z,5.24
2018-02-08T22:17:28.016Z,5.31
2018-02-08T22:19:55.544Z,5.23
2018-02-08T22:22:23.046Z,5.17
2018-02-08T22:24:51.331Z,5.22
2018-02-08T22:27:18.843Z,5.28
2018-02-08T22:29:46.398Z,5.27
2018-02-08T22:32:13.956Z,5.13
2018-02-08T22:34:41.783Z,5.15
2018-02-08T22:37:09.352Z,5.19
2018-02-08T22:39:36.909Z,5.25
2018-02-08T22:42:04.440Z,5.28
2018-02-08T22:44:31.940Z,5.33
2018-02-08T22:46:59.455Z,5.37
2018-02-08T22:49:26.964Z,5.36
2018-02-08T22:51:54.832Z,5.33
2018-02-08T22:54:22.337Z,5.26
2018-02-08T22:56:49.865Z,5.19
2018-02-08T22:59:17.354Z,5.19
2018-02-08T23:01:44.888Z,5.14
2018-02-08T23:04:12.458Z,5.15
2018-02-08T23:06:39.986Z,5.14
2018-02-08T23:09:07.502Z,5.14
2018-02-08T23:11:34.996Z,5.14
2018-02-08T23:14:02.508Z,5.04
2018-02-08T23:16:30.119Z,4.95
2018-02-08T23:18:57.840Z,4.97
2018-02-08T23:21:25.349Z,4.99
2018-02-08T23:23:53.031Z,4.96
2018-02-08T23:26:20.672Z,4.96
2018-02-08T23:28:48.248Z,4.99
2018-02-08T23:31:15.849Z,5.00
2018-02-08T23:33:43.346Z,5.04
2018-02-08T23:36:10.855Z,5.08
2018-02-08T23:38:38.356Z,5.18
2018-02-08T23:41:05.925Z,5.22
2018-02-08T23:43:34.250Z,5.28
2018-02-08T23:46:02.156Z,5.24
2018-02-08T23:48:29.672Z,5.23
2018-02-08T23:50:57.162Z,5.18
2018-02-08T23:53:24.666Z,5.18
2018-02-08T23:55:52.151Z,5.24
2018-02-08T23:58:19.681Z,5.21
